Time;durP1;ratioP1;P1;durP2;ratioP2;P2;SDS_P1;SDS_P2;PMS_P1;PMS_P2;Temp;Humidity;BMP_temperature;BMP_pressure;BME280_temperature;BME280_humidity;BME280_pressure;Samples;Min_cycle;Max_cycle;Signal;HPM_P1;HPM_P2
2021/09/22 00:01:31;;;;;;;1.50;1.10;;;12.30;98.20;;;;;;4954976;29;20471;-80
2021/09/22 00:03:58;;;;;;;1.50;1.10;;;12.30;98.20;;;;;;4954353;29;21013;-79
2021/09/22 00:06:25;;;;;;;1.53;1.10;;;12.30;98.20;;;;;;4953606;29;20493;-78
2021/09/22 00:08:52;;;;;;;1.50;1.10;;;12.20;98.20;;;;;;4953398;29;20467;-78
2021/09/22 00:11:19;;;;;;;1.50;1.03;;;12.20;98.20;;;;;;4953683;29;20471;-78
2021/09/22 00:13:47;;;;;;;1.50;1.10;;;12.20;98.20;;;;;;4953882;29;20474;-78
2021/09/22 00:16:14;;;;;;;1.50;1.10;;;12.20;98.20;;;;;;4953685;28;20863;-77
2021/09/22 00:18:41;;;;;;;1.50;1.10;;;12.20;98.20;;;;;;4954481;29;20474;-78
2021/09/22 00:21:08;;;;;;;1.50;1.10;;;12.20;98.20;;;;;;4953447;29;20519;-80
2021/09/22 00:23:35;;;;;;;1.50;1.20;;;12.10;98.20;;;;;;4954018;29;20546;-79
2021/09/22 00:26:01;;;;;;;1.50;1.10;;;12.10;98.20;;;;;;4952289;28;20486;-78
2021/09/22 00:28:29;;;;;;;1.57;1.20;;;12.10;98.20;;;;;;4953928;28;20471;-79
2021/09/22 00:30:57;;;;;;;1.50;1.10;;;12.10;98.20;;;;;;4954394;29;20493;-79
2021/09/22 00:33:24;;;;;;;1.53;1.10;;;12.10;98.20;;;;;;4951295;29;20470;-79
2021/09/22 00:35:50;;;;;;;1.50;1.10;;;12.10;98.20;;;;;;4949475;28;20487;-79
2021/09/22 00:38:17;;;;;;;1.50;1.10;;;12.10;98.20;;;;;;4953847;29;20494;-79
2021/09/22 00:40:46;;;;;;;1.50;1.10;;;12.10;98.20;;;;;;4953519;29;20473;-78
2021/09/22 00:43:12;;;;;;;1.50;1.10;;;12.10;98.20;;;;;;4954503;29;20478;-78
2021/09/22 00:45:39;;;;;;;1.50;1.10;;;12.10;98.20;;;;;;4953452;28;20486;-79
2021/09/22 00:48:07;;;;;;;1.50;1.20;;;12.10;98.20;;;;;;4954345;29;20466;-80
2021/09/22 00:50:35;;;;;;;1.50;1.10;;;12.10;98.20;;;;;;4953863;28;20479;-80
2021/09/22 00:53:02;;;;;;;1.50;1.10;;;12.00;98.20;;;;;;4955037;29;20518;-78
2021/09/22 00:55:29;;;;;;;1.50;1.10;;;12.00;98.20;;;;;;4951837;28;20529;-79
2021/09/22 00:57:58;;;;;;;1.50;1.10;;;12.00;98.20;;;;;;4953840;29;20489;-78
2021/09/22 01:00:27;;;;;;;1.50;1.10;;;12.00;98.20;;;;;;4951724;29;20471;-78
2021/09/22 01:02:54;;;;;;;1.50;1.10;;;12.00;98.20;;;;;;4953257;29;20471;-78
2021/09/22 01:05:26;;;;;;;1.50;1.10;;;12.00;98.20;;;;;;4953402;29;20491;-79
2021/09/22 01:07:53;;;;;;;1.50;1.10;;;12.00;98.20;;;;;;4952665;29;20477;-79
2021/09/22 01:10:21;;;;;;;1.53;1.20;;;12.00;98.20;;;;;;4948539;29;20859;-80
2021/09/22 01:12:48;;;;;;;1.50;1.10;;;12.00;98.20;;;;;;4953768;29;20506;-79
2021/09/22 01:15:27;;;;;;;1.50;1.10;;;12.00;98.20;;;;;;4954206;29;20486;-80
2021/09/22 01:17:55;;;;;;;1.50;1.10;;;12.00;98.20;;;;;;4960999;29;20587;-77
2021/09/22 01:20:23;;;;;;;1.50;1.10;;;12.00;98.20;;;;;;4954010;29;20817;-78
2021/09/22 01:22:51;;;;;;;1.50;1.10;;;12.00;98.20;;;;;;4955206;29;20533;-79
2021/09/22 01:25:18;;;;;;;1.53;1.10;;;11.90;98.20;;;;;;4952909;28;20505;-79
2021/09/22 01:27:49;;;;;;;1.50;1.10;;;11.90;98.20;;;;;;4951017;28;20479;-79
2021/09/22 01:30:17;;;;;;;1.50;1.10;;;11.90;98.20;;;;;;4951621;29;20494;-80
2021/09/22 01:32:52;;;;;;;1.53;1.10;;;11.90;98.20;;;;;;4949016;29;20462;-79
2021/09/22 01:35:19;;;;;;;1.50;1.10;;;11.90;98.20;;;;;;4952646;28;20478;-79
2021/09/22 01:37:47;;;;;;;1.50;1.03;;;11.90;98.20;;;;;;4943988;28;20463;-80
2021/09/22 01:40:15;;;;;;;1.50;1.10;;;11.90;98.20;;;;;;4945278;28;20461;-79
2021/09/22 01:42:42;;;;;;;1.53;1.20;;;11.90;98.20;;;;;;4950366;28;20469;-80
2021/09/22 01:45:12;;;;;;;1.50;1.13;;;11.90;98.20;;;;;;4952370;28;20467;-79
2021/09/22 01:47:39;;;;;;;1.60;1.20;;;11.80;98.20;;;;;;4952955;29;20478;-79
2021/09/22 01:50:08;;;;;;;1.53;1.10;;;11.80;98.20;;;;;;4953868;29;20486;-78
2021/09/22 01:52:36;;;;;;;1.57;1.20;;;11.80;98.20;;;;;;4952122;29;20473;-79
2021/09/22 01:55:04;;;;;;;1.57;1.20;;;11.80;98.20;;;;;;4952376;28;20685;-80
2021/09/22 01:57:32;;;;;;;1.53;1.10;;;11.80;98.20;;;;;;4952583;28;20865;-78
2021/09/22 01:59:59;;;;;;;1.53;1.10;;;11.70;98.20;;;;;;4953500;29;20487;-80
2021/09/22 02:02:26;;;;;;;1.50;1.23;;;11.70;98.20;;;;;;4952979;28;20573;-80
2021/09/22 02:04:53;;;;;;;1.50;1.20;;;11.70;98.20;;;;;;4953089;29;20466;-79
2021/09/22 02:07:20;;;;;;;1.50;1.10;;;11.70;98.20;;;;;;4952334;29;20554;-78
2021/09/22 02:09:47;;;;;;;1.50;1.10;;;11.70;98.20;;;;;;4952028;29;20487;-79
2021/09/22 02:12:14;;;;;;;1.50;1.07;;;11.70;98.20;;;;;;4951574;29;20463;-79
2021/09/22 02:14:42;;;;;;;1.50;1.10;;;11.60;98.20;;;;;;4952787;29;20473;-78
2021/09/22 02:17:09;;;;;;;1.57;1.20;;;11.60;98.20;;;;;;4951084;28;20487;-78
2021/09/22 02:19:35;;;;;;;1.50;1.10;;;11.60;98.20;;;;;;4951978;29;20502;-79
2021/09/22 02:22:02;;;;;;;1.50;1.10;;;11.60;98.20;;;;;;4953469;29;20459;-78
2021/09/22 02:24:29;;;;;;;1.50;1.07;;;11.60;98.20;;;;;;4953828;28;20526;-78
2021/09/22 02:26:56;;;;;;;1.50;1.10;;;11.60;98.20;;;;;;4952240;28;20483;-79
2021/09/22 02:29:24;;;;;;;1.53;1.10;;;11.60;98.20;;;;;;4949506;29;20474;-78
2021/09/22 02:31:53;;;;;;;1.50;1.17;;;11.60;98.20;;;;;;4940511;29;20487;-77
2021/09/22 02:34:19;;;;;;;1.50;1.10;;;11.50;98.20;;;;;;4953293;29;20473;-77
2021/09/22 02:36:46;;;;;;;1.50;1.10;;;11.50;98.20;;;;;;4948741;29;20479;-80
2021/09/22 02:39:13;;;;;;;1.50;1.07;;;11.50;98.20;;;;;;4953098;29;20474;-80
2021/09/22 02:41:40;;;;;;;1.50;1.10;;;11.50;98.20;;;;;;4952541;29;20986;-78
2021/09/22 02:44:07;;;;;;;1.50;1.03;;;11.40;98.20;;;;;;4952400;29;20470;-79
2021/09/22 02:46:34;;;;;;;1.50;1.20;;;11.40;98.20;;;;;;4950871;29;20486;-77
2021/09/22 02:49:02;;;;;;;1.50;1.10;;;11.40;98.20;;;;;;4951046;29;20550;-78
2021/09/22 02:51:29;;;;;;;1.53;1.20;;;11.40;98.20;;;;;;4953894;29;20494;-78
2021/09/22 02:53:56;;;;;;;1.57;1.20;;;11.40;98.20;;;;;;4953274;28;20497;-77
2021/09/22 02:56:23;;;;;;;1.60;1.20;;;11.40;98.20;;;;;;4956111;28;21169;-78
2021/09/22 02:58:49;;;;;;;1.50;1.10;;;11.40;98.20;;;;;;4953573;29;20506;-79
2021/09/22 03:01:16;;;;;;;1.50;1.10;;;11.30;98.20;;;;;;4953356;29;20463;-78
2021/09/22 03:03:43;;;;;;;1.53;1.20;;;11.30;98.20;;;;;;4953001;29;20483;-78
2021/09/22 03:06:11;;;;;;;1.50;1.10;;;11.30;98.20;;;;;;4952269;28;20478;-79
2021/09/22 03:08:39;;;;;;;1.50;1.10;;;11.30;98.20;;;;;;4952997;29;20459;-79
2021/09/22 03:11:08;;;;;;;1.50;1.20;;;11.30;98.20;;;;;;4953319;29;20506;-78
2021/09/22 03:13:36;;;;;;;1.53;1.20;;;11.30;98.20;;;;;;4952519;28;20498;-78
2021/09/22 03:16:03;;;;;;;1.50;1.20;;;11.30;98.20;;;;;;4955838;28;20921;-79
2021/09/22 03:18:30;;;;;;;1.50;1.20;;;11.20;98.20;;;;;;4955917;29;21085;-77
2021/09/22 03:20:57;;;;;;;1.50;1.10;;;11.20;98.20;;;;;;4956217;29;20829;-78
2021/09/22 03:23:26;;;;;;;1.50;1.10;;;11.20;98.20;;;;;;4955832;29;20847;-77
2021/09/22 03:25:54;;;;;;;1.50;1.00;;;11.20;98.20;;;;;;4958429;28;20485;-77
2021/09/22 03:28:21;;;;;;;1.50;1.10;;;11.20;98.20;;;;;;4959140;28;20474;-78
2021/09/22 03:30:47;;;;;;;1.50;1.10;;;11.20;98.20;;;;;;4955715;29;20493;-78
2021/09/22 03:33:15;;;;;;;1.60;1.20;;;11.20;98.20;;;;;;4955888;29;20462;-77
2021/09/22 03:35:42;;;;;;;1.50;1.10;;;11.20;98.20;;;;;;4955445;28;20562;-78
2021/09/22 03:38:09;;;;;;;1.50;1.10;;;11.10;98.20;;;;;;4953945;29;20517;-78
2021/09/22 03:40:37;;;;;;;1.50;1.20;;;11.10;98.20;;;;;;4955619;29;20796;-78
2021/09/22 03:43:04;;;;;;;1.50;1.20;;;11.10;98.20;;;;;;4956005;29;20459;-78
2021/09/22 03:45:32;;;;;;;1.53;1.20;;;11.10;98.20;;;;;;4952655;28;20860;-77
2021/09/22 03:47:59;;;;;;;1.50;1.20;;;11.10;98.20;;;;;;4954189;29;20467;-80
2021/09/22 03:50:25;;;;;;;1.50;1.20;;;11.00;98.20;;;;;;4954324;29;20486;-79
2021/09/22 03:52:52;;;;;;;1.50;1.00;;;11.00;98.20;;;;;;4955165;29;20459;-79
2021/09/22 03:55:19;;;;;;;1.60;1.30;;;11.00;98.20;;;;;;4953855;28;20864;-79
2021/09/22 03:57:47;;;;;;;1.50;1.20;;;11.00;98.20;;;;;;4955142;28;20459;-80
2021/09/22 04:00:15;;;;;;;1.50;1.10;;;11.00;98.20;;;;;;4956041;29;20467;-79
2021/09/22 04:02:42;;;;;;;1.50;1.10;;;10.90;98.20;;;;;;4956776;29;20471;-79
2021/09/22 04:05:09;;;;;;;1.60;1.20;;;10.90;98.20;;;;;;4955271;28;20467;-78
2021/09/22 04:07:37;;;;;;;2.40;1.53;;;10.90;98.20;;;;;;4954043;29;20665;-79
2021/09/22 04:10:05;;;;;;;1.50;1.20;;;10.90;98.20;;;;;;4954455;29;21016;-79
2021/09/22 04:12:32;;;;;;;1.50;1.10;;;10.90;98.20;;;;;;4956364;29;20466;-79
2021/09/22 04:15:00;;;;;;;1.57;1.20;;;10.90;98.20;;;;;;4953495;28;20471;-79
2021/09/22 04:17:27;;;;;;;1.53;1.20;;;10.90;98.20;;;;;;4954228;29;20467;-78
2021/09/22 04:19:54;;;;;;;1.50;1.10;;;10.80;98.20;;;;;;4954041;29;20463;-79
2021/09/22 04:22:21;;;;;;;1.50;1.10;;;10.80;98.20;;;;;;4955153;29;20463;-79
2021/09/22 04:24:48;;;;;;;1.50;1.20;;;10.80;98.20;;;;;;4959218;28;20466;-78
2021/09/22 04:27:14;;;;;;;1.50;1.20;;;10.80;98.20;;;;;;4957955;28;20487;-78
2021/09/22 04:29:42;;;;;;;1.50;1.10;;;10.80;98.20;;;;;;4954089;29;20471;-78
2021/09/22 04:32:11;;;;;;;1.50;1.20;;;10.80;98.20;;;;;;4956026;29;20498;-78
2021/09/22 04:34:56;;;;;;;1.53;1.10;;;10.80;98.20;;;;;;4954885;29;20471;-78
2021/09/22 04:37:34;;;;;;;1.50;1.10;;;10.70;98.20;;;;;;4954102;29;20458;-78
2021/09/22 04:40:07;;;;;;;1.50;1.20;;;10.70;98.20;;;;;;4951958;29;20474;-78
2021/09/22 04:42:34;;;;;;;1.53;1.20;;;10.70;98.20;;;;;;4943671;29;20566;-78
2021/09/22 04:45:01;;;;;;;1.57;1.20;;;10.70;98.20;;;;;;4952817;28;20558;-78
2021/09/22 04:47:29;;;;;;;1.50;1.20;;;10.70;98.20;;;;;;4952777;29;20498;-77
2021/09/22 04:49:56;;;;;;;1.50;1.20;;;10.70;98.20;;;;;;4952887;29;20526;-77
2021/09/22 04:52:23;;;;;;;1.50;1.10;;;10.70;98.20;;;;;;4953565;29;20487;-78
2021/09/22 04:54:50;;;;;;;1.50;1.20;;;10.70;98.20;;;;;;4951349;28;21249;-80
2021/09/22 04:57:17;;;;;;;1.50;1.20;;;10.60;98.20;;;;;;4953152;28;20473;-78
2021/09/22 04:59:45;;;;;;;1.50;1.10;;;10.60;98.20;;;;;;4953960;29;20550;-81
2021/09/22 05:02:12;;;;;;;1.53;1.20;;;10.60;98.20;;;;;;4959674;29;20515;-80
2021/09/22 05:04:40;;;;;;;1.50;1.20;;;10.60;98.20;;;;;;4952898;29;20821;-79
2021/09/22 05:07:07;;;;;;;1.50;1.20;;;10.60;98.20;;;;;;4954248;28;20513;-79
2021/09/22 05:09:34;;;;;;;1.50;1.20;;;10.60;98.20;;;;;;4954745;29;20478;-79
2021/09/22 05:12:05;;;;;;;1.57;1.20;;;10.60;98.20;;;;;;4956695;28;20505;-80
2021/09/22 05:14:32;;;;;;;1.60;1.30;;;10.60;98.20;;;;;;4957615;28;20465;-77
2021/09/22 05:17:00;;;;;;;1.57;1.20;;;10.60;98.20;;;;;;4958029;28;20479;-78
2021/09/22 05:19:27;;;;;;;1.50;1.20;;;10.60;98.20;;;;;;4952250;29;20502;-80
2021/09/22 05:21:56;;;;;;;1.50;1.20;;;10.60;98.20;;;;;;4952537;29;20934;-79
2021/09/22 05:24:24;;;;;;;1.50;1.20;;;10.50;98.20;;;;;;4954762;28;20510;-79
2021/09/22 05:26:51;;;;;;;1.50;1.20;;;10.50;98.20;;;;;;4964916;28;20561;-80
2021/09/22 05:29:18;;;;;;;1.50;1.10;;;10.50;98.20;;;;;;4938670;29;20463;-79
2021/09/22 05:31:45;;;;;;;1.50;1.20;;;10.60;98.20;;;;;;4953423;29;21044;-80
2021/09/22 05:34:13;;;;;;;1.53;1.10;;;10.60;98.20;;;;;;4952512;29;20463;-78
2021/09/22 05:36:40;;;;;;;1.53;1.10;;;10.60;98.20;;;;;;4955147;28;20517;-79
2021/09/22 05:39:08;;;;;;;1.50;1.10;;;10.60;98.20;;;;;;4955877;29;20478;-78
2021/09/22 05:41:35;;;;;;;1.50;1.10;;;10.60;98.20;;;;;;4950780;29;20572;-79
2021/09/22 05:44:02;;;;;;;1.50;1.20;;;10.60;98.20;;;;;;4956740;29;20482;-79
2021/09/22 05:46:30;;;;;;;1.50;1.10;;;10.60;98.20;;;;;;4957052;29;20483;-78
2021/09/22 05:48:57;;;;;;;1.50;1.10;;;10.70;98.20;;;;;;4956763;29;21003;-78
2021/09/22 05:51:24;;;;;;;1.50;1.17;;;10.70;98.20;;;;;;4955392;29;20496;-76
2021/09/22 05:53:52;;;;;;;1.53;1.10;;;10.70;98.20;;;;;;4955977;28;20514;-78
2021/09/22 05:56:21;;;;;;;1.50;1.20;;;10.70;98.20;;;;;;4954742;28;20502;-79
2021/09/22 05:58:48;;;;;;;1.50;1.10;;;10.70;98.20;;;;;;4955248;29;20526;-78
2021/09/22 06:01:15;;;;;;;1.57;1.20;;;10.80;98.20;;;;;;4956266;29;20908;-79
2021/09/22 06:03:42;;;;;;;1.57;1.20;;;10.80;98.20;;;;;;4956307;29;20562;-79
2021/09/22 06:06:09;;;;;;;1.50;1.10;;;10.80;98.20;;;;;;4955646;29;20486;-78
2021/09/22 06:08:37;;;;;;;1.50;1.10;;;10.90;98.20;;;;;;4954050;29;20474;-79
2021/09/22 06:11:04;;;;;;;1.50;1.17;;;10.90;98.20;;;;;;4953689;29;20576;-79
2021/09/22 06:13:32;;;;;;;1.50;1.10;;;11.00;98.20;;;;;;4955116;29;20624;-79
2021/09/22 06:15:59;;;;;;;1.53;1.10;;;11.00;98.20;;;;;;4955396;29;20485;-79
2021/09/22 06:18:27;;;;;;;1.53;1.20;;;11.10;98.20;;;;;;4955139;29;20459;-79
2021/09/22 06:20:54;;;;;;;1.50;1.10;;;11.10;98.20;;;;;;4955411;29;20467;-78
2021/09/22 06:23:21;;;;;;;1.50;1.10;;;11.20;98.20;;;;;;4955348;29;21013;-78
2021/09/22 06:25:48;;;;;;;1.50;1.10;;;11.20;98.20;;;;;;4954670;28;20486;-78
2021/09/22 06:28:15;;;;;;;1.50;1.10;;;11.20;98.20;;;;;;4959789;28;20497;-80
2021/09/22 06:30:43;;;;;;;1.50;1.10;;;11.30;98.20;;;;;;4955895;29;21045;-79
2021/09/22 06:33:10;;;;;;;1.53;1.20;;;11.40;98.20;;;;;;4954721;29;20490;-78
2021/09/22 06:35:37;;;;;;;1.53;1.20;;;11.40;98.20;;;;;;4952921;29;20542;-78
2021/09/22 06:38:04;;;;;;;1.50;1.07;;;11.50;98.20;;;;;;4953415;29;21000;-78
2021/09/22 06:41:15;;;;;;;1.50;1.10;;;11.50;98.20;;;;;;4955384;29;20546;-79
2021/09/22 06:43:42;;;;;;;1.53;1.10;;;11.60;98.20;;;;;;4951075;29;20462;-79
2021/09/22 06:46:10;;;;;;;1.50;1.10;;;11.60;98.20;;;;;;4954154;28;20487;-79
2021/09/22 06:48:37;;;;;;;30.13;2.17;;;11.70;98.20;;;;;;4956471;28;20942;-78
2021/09/22 06:51:04;;;;;;;1.50;1.10;;;11.70;98.20;;;;;;4957282;29;20490;-78
2021/09/22 06:53:33;;;;;;;1.80;1.57;;;11.80;98.20;;;;;;4957447;29;20816;-79
2021/09/22 06:56:00;;;;;;;1.57;1.13;;;11.90;98.20;;;;;;4957940;28;20533;-78
2021/09/22 06:58:27;;;;;;;1.50;1.10;;;11.90;98.20;;;;;;4958738;29;20467;-77
2021/09/22 07:00:54;;;;;;;1.60;1.30;;;12.00;98.20;;;;;;4959124;29;20561;-78
2021/09/22 07:03:23;;;;;;;1.50;1.10;;;12.00;98.20;;;;;;4959202;29;20525;-78
2021/09/22 07:05:50;;;;;;;1.53;1.17;;;12.10;98.20;;;;;;4956620;28;20855;-78
2021/09/22 07:08:17;;;;;;;1.50;1.10;;;12.20;98.20;;;;;;4957680;29;20465;-78
2021/09/22 07:10:44;;;;;;;1.57;1.10;;;12.20;98.20;;;;;;4955287;29;20467;-77
2021/09/22 07:13:11;;;;;;;1.53;1.10;;;12.30;98.20;;;;;;4957255;28;20977;-77
2021/09/22 07:15:38;;;;;;;1.50;1.10;;;12.30;98.20;;;;;;4958165;28;20588;-77
2021/09/22 07:18:05;;;;;;;1.50;1.03;;;12.50;98.20;;;;;;4952448;28;20471;-78
2021/09/22 07:20:34;;;;;;;1.50;0.90;;;12.60;98.20;;;;;;4956506;29;20470;-78
2021/09/22 07:23:01;;;;;;;1.50;1.03;;;12.70;98.20;;;;;;4956112;28;21015;-77
2021/09/22 07:25:28;;;;;;;1.50;1.00;;;12.80;98.20;;;;;;4953651;28;20495;-76
2021/09/22 07:27:55;;;;;;;1.50;1.10;;;12.90;98.20;;;;;;4955303;29;20585;-77
2021/09/22 07:30:22;;;;;;;1.50;1.00;;;13.00;98.20;;;;;;4952014;28;20471;-76
2021/09/22 07:32:49;;;;;;;1.50;1.00;;;13.00;98.20;;;;;;4954948;29;20482;-77
2021/09/22 07:35:18;;;;;;;1.53;1.00;;;13.10;98.20;;;;;;4955336;29;20486;-77
2021/09/22 07:37:46;;;;;;;1.50;1.10;;;13.30;98.20;;;;;;4951863;28;20988;-78
2021/09/22 07:40:15;;;;;;;1.50;1.00;;;13.40;98.20;;;;;;4955712;29;20462;-78
2021/09/22 07:42:42;;;;;;;1.50;1.00;;;13.40;98.20;;;;;;4955398;29;20470;-78
2021/09/22 07:45:10;;;;;;;1.50;1.10;;;13.40;98.20;;;;;;4954583;29;20501;-77
2021/09/22 07:47:37;;;;;;;1.53;1.00;;;13.50;98.20;;;;;;4955314;28;20545;-77
2021/09/22 07:50:08;;;;;;;1.53;1.00;;;13.70;98.20;;;;;;4955127;29;20896;-78
2021/09/22 07:52:35;;;;;;;1.50;1.00;;;13.80;98.20;;;;;;4953051;28;20506;-78
2021/09/22 07:55:05;;;;;;;1.50;1.00;;;13.90;98.20;;;;;;4954232;28;20856;-78
2021/09/22 07:57:32;;;;;;;1.50;1.00;;;14.00;98.20;;;;;;4955463;28;20496;-78
2021/09/22 07:59:59;;;;;;;1.50;1.00;;;14.10;98.20;;;;;;4954086;28;20498;-78
2021/09/22 08:02:26;;;;;;;1.50;1.00;;;14.10;98.20;;;;;;4954784;29;20471;-78
2021/09/22 08:04:53;;;;;;;1.50;1.00;;;14.20;98.20;;;;;;4954788;28;20498;-79
2021/09/22 08:07:21;;;;;;;1.60;1.03;;;14.30;98.20;;;;;;4951231;29;20467;-78
2021/09/22 08:09:49;;;;;;;1.53;1.00;;;14.50;98.20;;;;;;4954001;29;21012;-79
2021/09/22 08:12:17;;;;;;;1.50;1.00;;;14.60;98.20;;;;;;4951776;29;20522;-79
2021/09/22 08:14:45;;;;;;;1.50;1.00;;;14.80;98.20;;;;;;4953028;29;20475;-79
2021/09/22 08:17:14;;;;;;;1.50;1.00;;;15.00;98.20;;;;;;4953284;28;21030;-78
2021/09/22 08:19:41;;;;;;;1.60;1.10;;;15.20;98.20;;;;;;4952324;29;20474;-78
2021/09/22 08:22:09;;;;;;;1.53;1.00;;;15.40;98.20;;;;;;4950711;29;20467;-78
2021/09/22 08:24:37;;;;;;;1.50;0.97;;;15.50;98.20;;;;;;4951444;28;21072;-78
2021/09/22 08:27:04;;;;;;;1.53;1.00;;;15.60;98.20;;;;;;4951851;28;20582;-77
2021/09/22 08:29:33;;;;;;;1.50;1.00;;;15.70;98.20;;;;;;4952308;29;20466;-78
2021/09/22 08:32:01;;;;;;;1.57;1.00;;;15.70;98.20;;;;;;4953535;29;20833;-77
2021/09/22 08:34:28;;;;;;;1.57;1.10;;;15.70;98.20;;;;;;4952722;29;20558;-78
2021/09/22 08:36:56;;;;;;;1.53;1.00;;;15.80;98.20;;;;;;4952130;29;20578;-78
2021/09/22 08:39:23;;;;;;;1.50;1.00;;;15.90;98.20;;;;;;4949022;29;20942;-79
2021/09/22 08:41:50;;;;;;;1.60;1.20;;;15.90;98.20;;;;;;4952083;29;20469;-78
2021/09/22 08:44:19;;;;;;;1.50;1.07;;;16.10;98.20;;;;;;4951979;29;21003;-78
2021/09/22 08:46:47;;;;;;;1.50;1.00;;;16.20;98.20;;;;;;4949933;28;20487;-77
2021/09/22 08:49:15;;;;;;;1.50;1.00;;;16.30;98.20;;;;;;4952678;28;20490;-78
2021/09/22 08:51:43;;;;;;;1.50;1.00;;;16.40;97.80;;;;;;4952741;29;20922;-77
2021/09/22 08:54:10;;;;;;;1.50;0.90;;;16.60;96.90;;;;;;4956058;28;20478;-77
2021/09/22 08:56:38;;;;;;;1.50;1.00;;;16.70;97.00;;;;;;4951202;28;20801;-77
2021/09/22 08:59:06;;;;;;;1.50;1.00;;;16.80;97.90;;;;;;4952250;29;21122;-77
2021/09/22 09:01:33;;;;;;;1.50;1.00;;;16.80;96.20;;;;;;4952352;29;20579;-76
2021/09/22 09:07:19;;;;;;;1.60;1.00;;;16.80;96.90;;;;;;4944643;29;20712;-76
2021/09/22 09:09:46;;;;;;;1.50;1.00;;;16.90;97.10;;;;;;4950740;29;20469;-77
2021/09/22 09:12:18;;;;;;;1.50;1.00;;;17.00;95.60;;;;;;4946771;29;20491;-77
2021/09/22 09:14:52;;;;;;;1.50;1.00;;;17.10;96.70;;;;;;4951793;29;20466;-77
2021/09/22 09:17:36;;;;;;;1.50;1.00;;;17.20;96.00;;;;;;4952570;28;20475;-77
2021/09/22 09:20:12;;;;;;;1.50;1.00;;;17.40;94.80;;;;;;4952123;29;20475;-76
2021/09/22 09:22:40;;;;;;;1.60;1.07;;;17.60;94.40;;;;;;4947888;29;20501;-77
2021/09/22 09:25:08;;;;;;;1.50;0.90;;;17.70;94.70;;;;;;4953328;28;20517;-78
2021/09/22 09:28:35;;;;;;;1.50;1.00;;;17.80;93.70;;;;;;4964526;28;20475;-78
2021/09/22 09:31:06;;;;;;;2.00;1.20;;;17.90;93.40;;;;;;4948646;29;20467;-79
2021/09/22 09:33:47;;;;;;;1.50;0.90;;;18.10;94.00;;;;;;5144826;27;20628;-79
2021/09/22 09:36:30;;;;;;;1.50;0.90;;;18.10;93.60;;;;;;5124136;28;20550;-77
2021/09/22 09:39:07;;;;;;;1.50;0.90;;;18.30;93.60;;;;;;5116602;28;20985;-78
2021/09/22 09:41:37;;;;;;;1.50;0.90;;;18.40;92.40;;;;;;5108595;28;21025;-78
2021/09/22 09:44:07;;;;;;;1.53;0.90;;;18.40;93.20;;;;;;5103679;28;20456;-78
2021/09/22 09:46:35;;;;;;;1.60;1.10;;;18.50;91.70;;;;;;5107169;28;20513;-78
2021/09/22 09:49:07;;;;;;;1.50;0.90;;;18.60;91.80;;;;;;5107679;28;20464;-78
2021/09/22 09:51:40;;;;;;;1.50;0.90;;;18.70;91.80;;;;;;5107055;28;20841;-77
2021/09/22 09:54:13;;;;;;;1.50;0.90;;;18.70;91.10;;;;;;5104226;28;20467;-78
2021/09/22 09:56:41;;;;;;;1.50;0.90;;;18.80;92.30;;;;;;5107446;28;20479;-77
2021/09/22 09:59:08;;;;;;;1.50;1.00;;;18.90;91.20;;;;;;5101924;28;20744;-77
2021/09/22 10:01:42;;;;;;;1.50;0.90;;;19.00;90.90;;;;;;5111415;28;20470;-78
2021/09/22 10:04:41;;;;;;;1.50;0.90;;;19.00;91.60;;;;;;5102944;28;20468;-77
2021/09/22 10:07:09;;;;;;;1.50;0.90;;;19.10;90.00;;;;;;5106256;28;20487;-78
2021/09/22 10:09:37;;;;;;;1.50;0.90;;;19.20;89.80;;;;;;5108781;28;20464;-78
2021/09/22 10:15:05;;;;;;;1.50;0.90;;;19.30;87.70;;;;;;5096127;28;20470;-79
2021/09/22 10:17:34;;;;;;;1.50;0.90;;;19.40;88.20;;;;;;5108196;28;20455;-80
2021/09/22 10:20:03;;;;;;;1.50;0.90;;;19.50;87.60;;;;;;5100724;27;20455;-80
2021/09/22 10:22:31;;;;;;;1.50;0.90;;;19.60;86.30;;;;;;5096777;28;20453;-79
2021/09/22 10:24:59;;;;;;;1.53;0.90;;;19.80;86.80;;;;;;5104308;28;20822;-79
2021/09/22 10:27:27;;;;;;;1.50;0.90;;;19.90;86.60;;;;;;5103275;28;20563;-79
2021/09/22 10:29:59;;;;;;;1.50;0.90;;;20.00;85.80;;;;;;5109234;27;20495;-79
2021/09/22 10:32:38;;;;;;;1.50;0.90;;;20.20;85.40;;;;;;5109815;28;20834;-79
2021/09/22 10:35:36;;;;;;;1.50;0.90;;;20.40;85.00;;;;;;5102827;28;20664;-79
2021/09/22 10:38:23;;;;;;;1.50;0.90;;;20.50;84.20;;;;;;5108139;28;20568;-79
2021/09/22 10:40:54;;;;;;;1.50;0.90;;;20.60;84.60;;;;;;5092981;28;21056;-79
2021/09/22 10:43:23;;;;;;;1.50;0.90;;;20.70;83.50;;;;;;5101390;27;21003;-79
2021/09/22 10:46:11;;;;;;;1.50;0.90;;;20.80;83.70;;;;;;5097725;28;20499;-79
2021/09/22 10:48:40;;;;;;;1.50;1.00;;;20.90;83.50;;;;;;5087455;28;20827;-79
2021/09/22 10:51:13;;;;;;;1.50;0.90;;;20.90;83.10;;;;;;5084827;28;21153;-79
2021/09/22 10:53:43;;;;;;;1.73;1.30;;;21.00;82.60;;;;;;5092091;28;20586;-79
2021/09/22 10:56:17;;;;;;;1.50;0.90;;;21.10;84.10;;;;;;5090421;28;20488;-79
2021/09/22 10:58:50;;;;;;;1.50;0.90;;;21.20;83.90;;;;;;5080822;28;20777;-79
2021/09/22 11:01:49;;;;;;;1.50;1.00;;;21.20;83.30;;;;;;5090791;28;20460;-79
2021/09/22 11:04:16;;;;;;;1.50;0.90;;;21.30;82.60;;;;;;5088511;28;20463;-80
2021/09/22 11:06:58;;;;;;;1.50;0.90;;;21.30;82.70;;;;;;5096104;28;20562;-79
2021/09/22 11:09:31;;;;;;;1.50;0.90;;;21.20;82.90;;;;;;5088620;28;20457;-80
2021/09/22 11:12:16;;;;;;;1.50;0.90;;;21.20;83.50;;;;;;5089950;28;20821;-79
2021/09/22 11:14:48;;;;;;;1.50;0.90;;;21.10;83.30;;;;;;5079389;28;20549;-80
2021/09/22 11:17:19;;;;;;;1.50;0.90;;;21.20;83.40;;;;;;5084775;28;20484;-79
2021/09/22 11:19:48;;;;;;;1.47;0.90;;;21.20;82.00;;;;;;5080671;28;20472;-77
2021/09/22 11:22:18;;;;;;;1.50;0.90;;;21.20;81.50;;;;;;5094935;28;20468;-77
2021/09/22 11:24:46;;;;;;;1.50;0.90;;;21.30;81.60;;;;;;5087252;28;20471;-77
2021/09/22 11:27:14;;;;;;;1.50;0.90;;;21.40;80.20;;;;;;5071379;28;20635;-77
2021/09/22 11:29:45;;;;;;;1.50;0.90;;;21.50;82.20;;;;;;5087782;28;20894;-78
2021/09/22 11:32:32;;;;;;;1.50;0.90;;;21.50;80.70;;;;;;5083378;28;20519;-78
2021/09/22 11:35:10;;;;;;;1.50;1.00;;;21.60;80.00;;;;;;5083008;28;21322;-78
2021/09/22 11:37:40;;;;;;;1.50;0.90;;;21.70;80.40;;;;;;5088779;28;20900;-78
2021/09/22 11:40:18;;;;;;;1.50;0.90;;;21.80;81.00;;;;;;5088418;28;20472;-78
2021/09/22 11:42:57;;;;;;;1.50;0.90;;;21.90;79.50;;;;;;5089148;28;20527;-78
2021/09/22 11:45:25;;;;;;;1.50;0.90;;;22.00;78.40;;;;;;5087233;28;20484;-78
2021/09/22 11:47:52;;;;;;;1.50;0.90;;;22.10;77.80;;;;;;5083071;28;20515;-78
2021/09/22 11:53:19;;;;;;;1.50;0.90;;;22.20;79.40;;;;;;5084780;28;20575;-77
2021/09/22 11:55:48;;;;;;;1.50;0.90;;;22.40;77.80;;;;;;5090913;28;20645;-79
2021/09/22 11:58:17;;;;;;;1.50;0.90;;;22.40;79.40;;;;;;5083746;28;21063;-79
2021/09/22 12:00:45;;;;;;;1.50;0.90;;;22.50;78.40;;;;;;5086343;28;20452;-79
2021/09/22 12:03:14;;;;;;;1.50;0.90;;;22.60;77.90;;;;;;5088434;28;20873;-78
2021/09/22 12:05:43;;;;;;;1.50;0.90;;;22.60;76.40;;;;;;5082709;28;21031;-77
2021/09/22 12:08:10;;;;;;;1.50;0.90;;;22.70;77.00;;;;;;5090896;28;20847;-78
2021/09/22 12:10:45;;;;;;;1.50;0.90;;;22.70;76.70;;;;;;5089146;28;20518;-77
2021/09/22 12:13:13;;;;;;;1.50;0.90;;;22.80;77.70;;;;;;5087996;28;20494;-79
2021/09/22 12:15:40;;;;;;;1.50;1.00;;;22.90;77.60;;;;;;5086436;28;20476;-77
2021/09/22 12:18:09;;;;;;;1.50;0.90;;;23.00;76.70;;;;;;5090225;28;20464;-78
2021/09/22 12:20:37;;;;;;;1.50;0.90;;;23.00;76.70;;;;;;5088271;28;20974;-78
2021/09/22 12:23:07;;;;;;;1.60;1.20;;;23.10;76.40;;;;;;5091906;28;20477;-76
2021/09/22 12:25:36;;;;;;;1.50;0.90;;;23.20;75.00;;;;;;5095454;28;20472;-77
2021/09/22 12:28:06;;;;;;;1.50;0.90;;;23.20;76.70;;;;;;5085710;28;20620;-77
2021/09/22 12:30:35;;;;;;;1.50;0.90;;;23.30;76.10;;;;;;5088720;28;20479;-77
2021/09/22 12:33:04;;;;;;;1.47;0.87;;;23.30;76.60;;;;;;5093162;28;20484;-78
2021/09/22 12:35:33;;;;;;;1.50;0.90;;;23.40;76.30;;;;;;5091278;28;20512;-78
2021/09/22 12:38:02;;;;;;;1.40;0.87;;;23.40;77.00;;;;;;5090240;28;21054;-78
2021/09/22 12:40:32;;;;;;;1.47;0.90;;;23.40;76.10;;;;;;5096226;28;20858;-78
2021/09/22 12:43:01;;;;;;;1.50;0.90;;;23.40;76.10;;;;;;5088373;28;20468;-78
2021/09/22 12:45:32;;;;;;;1.50;0.90;;;23.40;76.50;;;;;;5090259;28;20560;-78
2021/09/22 12:48:02;;;;;;;1.50;0.90;;;23.40;75.00;;;;;;5085132;28;20885;-79
2021/09/22 12:50:33;;;;;;;1.50;0.90;;;23.40;74.60;;;;;;5085386;28;20671;-77
2021/09/22 12:53:10;;;;;;;1.50;0.90;;;23.40;74.80;;;;;;5088541;28;20502;-78
2021/09/22 12:55:46;;;;;;;1.50;0.90;;;23.50;75.70;;;;;;5097735;28;20946;-79
2021/09/22 12:58:16;;;;;;;1.47;0.90;;;23.50;74.80;;;;;;5091907;28;20884;-78
2021/09/22 13:00:54;;;;;;;1.50;0.90;;;23.50;74.50;;;;;;5086282;28;20469;-78
2021/09/22 13:03:26;;;;;;;1.50;0.90;;;23.60;74.30;;;;;;5091519;28;20457;-78
2021/09/22 13:05:55;;;;;;;1.50;0.90;;;23.70;75.30;;;;;;5095099;28;20554;-79
2021/09/22 13:08:24;;;;;;;1.50;0.90;;;23.60;75.20;;;;;;5089508;28;20579;-79